sensor_id;sensor_type;location;lat;lon;timestamp;P1;durP1;ratioP1;P2;durP2;ratioP2
595;SDS011;19946;49.306;11.350;2023-05-14T00:02:45;0.40;;;0.40;;
595;SDS011;19946;49.306;11.350;2023-05-14T00:05:47;0.50;;;0.50;;
595;SDS011;19946;49.306;11.350;2023-05-14T00:08:50;0.50;;;0.50;;
595;SDS011;19946;49.306;11.350;2023-05-14T00:11:52;0.57;;;0.57;;
595;SDS011;19946;49.306;11.350;2023-05-14T00:18:02;0.60;;;0.60;;
595;SDS011;19946;49.306;11.350;2023-05-14T00:21:04;0.60;;;0.60;;
595;SDS011;19946;49.306;11.350;2023-05-14T00:24:06;0.70;;;0.70;;
595;SDS011;19946;49.306;11.350;2023-05-14T00:27:10;0.60;;;0.60;;
595;SDS011;19946;49.306;11.350;2023-05-14T00:30:14;0.60;;;0.60;;
595;SDS011;19946;49.306;11.350;2023-05-14T00:33:15;0.60;;;0.60;;
595;SDS011;19946;49.306;11.350;2023-05-14T00:36:21;0.50;;;0.50;;
595;SDS011;19946;49.306;11.350;2023-05-14T00:39:23;0.60;;;0.60;;
595;SDS011;19946;49.306;11.350;2023-05-14T00:42:28;0.70;;;0.70;;
595;SDS011;19946;49.306;11.350;2023-05-14T00:45:30;0.77;;;0.77;;
595;SDS011;19946;49.306;11.350;2023-05-14T00:48:34;0.60;;;0.60;;
595;SDS011;19946;49.306;11.350;2023-05-14T00:51:35;0.50;;;0.50;;
595;SDS011;19946;49.306;11.350;2023-05-14T00:54:39;0.60;;;0.60;;
595;SDS011;19946;49.306;11.350;2023-05-14T00:57:40;0.60;;;0.60;;
595;SDS011;19946;49.306;11.350;2023-05-14T01:00:41;0.53;;;0.53;;
595;SDS011;19946;49.306;11.350;2023-05-14T01:03:44;0.60;;;0.60;;
595;SDS011;19946;49.306;11.350;2023-05-14T01:10:24;0.50;;;0.50;;
595;SDS011;19946;49.306;11.350;2023-05-14T01:16:58;0.60;;;0.60;;
595;SDS011;19946;49.306;11.350;2023-05-14T01:20:04;0.60;;;0.60;;
595;SDS011;19946;49.306;11.350;2023-05-14T01:23:10;0.60;;;0.60;;
595;SDS011;19946;49.306;11.350;2023-05-14T01:26:12;0.60;;;0.60;;
595;SDS011;19946;49.306;11.350;2023-05-14T01:29:20;0.60;;;0.60;;
595;SDS011;19946;49.306;11.350;2023-05-14T01:32:28;0.70;;;0.70;;
595;SDS011;19946;49.306;11.350;2023-05-14T01:35:30;0.80;;;0.80;;
595;SDS011;19946;49.306;11.350;2023-05-14T01:38:32;0.50;;;0.50;;
595;SDS011;19946;49.306;11.350;2023-05-14T01:41:41;0.67;;;0.67;;
595;SDS011;19946;49.306;11.350;2023-05-14T01:44:45;0.50;;;0.50;;
595;SDS011;19946;49.306;11.350;2023-05-14T01:47:56;0.60;;;0.60;;
595;SDS011;19946;49.306;11.350;2023-05-14T01:52:20;0.60;;;0.60;;
595;SDS011;19946;49.306;11.350;2023-05-14T01:55:48;0.50;;;0.50;;
595;SDS011;19946;49.306;11.350;2023-05-14T02:03:28;0.60;;;0.60;;
595;SDS011;19946;49.306;11.350;2023-05-14T02:07:23;0.70;;;0.70;;
595;SDS011;19946;49.306;11.350;2023-05-14T02:11:06;0.60;;;0.60;;
595;SDS011;19946;49.306;11.350;2023-05-14T02:14:43;0.57;;;0.57;;
595;SDS011;19946;49.306;11.350;2023-05-14T02:17:58;0.53;;;0.53;;
595;SDS011;19946;49.306;11.350;2023-05-14T02:25:06;0.60;;;0.60;;
595;SDS011;19946;49.306;11.350;2023-05-14T02:28:09;0.50;;;0.50;;
595;SDS011;19946;49.306;11.350;2023-05-14T02:35:19;0.60;;;0.60;;
595;SDS011;19946;49.306;11.350;2023-05-14T02:42:42;0.60;;;0.60;;
595;SDS011;19946;49.306;11.350;2023-05-14T02:45:43;0.40;;;0.40;;
595;SDS011;19946;49.306;11.350;2023-05-14T02:48:44;0.60;;;0.60;;
595;SDS011;19946;49.306;11.350;2023-05-14T02:51:47;0.40;;;0.40;;
595;SDS011;19946;49.306;11.350;2023-05-14T02:54:48;0.60;;;0.60;;
595;SDS011;19946;49.306;11.350;2023-05-14T02:57:49;0.50;;;0.50;;
595;SDS011;19946;49.306;11.350;2023-05-14T03:00:52;0.50;;;0.50;;
595;SDS011;19946;49.306;11.350;2023-05-14T03:03:52;0.50;;;0.50;;
595;SDS011;19946;49.306;11.350;2023-05-14T03:06:53;0.70;;;0.70;;
595;SDS011;19946;49.306;11.350;2023-05-14T03:09:55;0.70;;;0.70;;
595;SDS011;19946;49.306;11.350;2023-05-14T03:12:55;0.70;;;0.70;;
595;SDS011;19946;49.306;11.350;2023-05-14T03:15:56;0.60;;;0.60;;
595;SDS011;19946;49.306;11.350;2023-05-14T03:18:57;0.50;;;0.50;;
595;SDS011;19946;49.306;11.350;2023-05-14T03:21:58;0.67;;;0.67;;
595;SDS011;19946;49.306;11.350;2023-05-14T03:25:04;0.90;;;0.90;;
595;SDS011;19946;49.306;11.350;2023-05-14T03:28:05;0.60;;;0.60;;
595;SDS011;19946;49.306;11.350;2023-05-14T03:31:07;0.50;;;0.50;;
595;SDS011;19946;49.306;11.350;2023-05-14T03:34:10;0.40;;;0.40;;
595;SDS011;19946;49.306;11.350;2023-05-14T03:37:12;0.50;;;0.50;;
595;SDS011;19946;49.306;11.350;2023-05-14T03:40:13;0.50;;;0.50;;
595;SDS011;19946;49.306;11.350;2023-05-14T03:43:15;0.60;;;0.60;;
595;SDS011;19946;49.306;11.350;2023-05-14T03:46:16;0.60;;;0.60;;
595;SDS011;19946;49.306;11.350;2023-05-14T03:49:19;0.50;;;0.50;;
595;SDS011;19946;49.306;11.350;2023-05-14T03:52:22;0.60;;;0.60;;
595;SDS011;19946;49.306;11.350;2023-05-14T03:55:24;0.60;;;0.60;;
595;SDS011;19946;49.306;11.350;2023-05-14T03:58:26;0.60;;;0.60;;
595;SDS011;19946;49.306;11.350;2023-05-14T04:01:27;0.60;;;0.60;;
595;SDS011;19946;49.306;11.350;2023-05-14T04:04:28;0.60;;;0.60;;
595;SDS011;19946;49.306;11.350;2023-05-14T04:07:29;0.60;;;0.60;;
595;SDS011;19946;49.306;11.350;2023-05-14T04:10:30;0.60;;;0.60;;
595;SDS011;19946;49.306;11.350;2023-05-14T04:13:33;0.60;;;0.60;;
595;SDS011;19946;49.306;11.350;2023-05-14T04:16:34;0.50;;;0.50;;
595;SDS011;19946;49.306;11.350;2023-05-14T04:19:35;0.70;;;0.70;;
595;SDS011;19946;49.306;11.350;2023-05-14T04:22:39;0.80;;;0.80;;
595;SDS011;19946;49.306;11.350;2023-05-14T04:25:43;0.83;;;0.83;;
595;SDS011;19946;49.306;11.350;2023-05-14T04:28:44;0.80;;;0.80;;
595;SDS011;19946;49.306;11.350;2023-05-14T04:31:45;0.60;;;0.60;;
595;SDS011;19946;49.306;11.350;2023-05-14T04:34:48;0.80;;;0.80;;
595;SDS011;19946;49.306;11.350;2023-05-14T04:37:50;0.60;;;0.60;;
595;SDS011;19946;49.306;11.350;2023-05-14T04:40:51;0.70;;;0.70;;
595;SDS011;19946;49.306;11.350;2023-05-14T04:43:54;0.70;;;0.70;;
595;SDS011;19946;49.306;11.350;2023-05-14T04:46:55;0.90;;;0.90;;
595;SDS011;19946;49.306;11.350;2023-05-14T04:49:57;0.70;;;0.70;;
595;SDS011;19946;49.306;11.350;2023-05-14T04:52:59;0.70;;;0.70;;
595;SDS011;19946;49.306;11.350;2023-05-14T04:56:02;1.00;;;1.00;;
595;SDS011;19946;49.306;11.350;2023-05-14T04:59:04;1.13;;;1.13;;
595;SDS011;19946;49.306;11.350;2023-05-14T05:02:05;1.50;;;1.50;;
595;SDS011;19946;49.306;11.350;2023-05-14T05:05:06;1.00;;;1.00;;
595;SDS011;19946;49.306;11.350;2023-05-14T05:08:09;0.90;;;0.90;;
595;SDS011;19946;49.306;11.350;2023-05-14T05:11:11;1.10;;;1.10;;
595;SDS011;19946;49.306;11.350;2023-05-14T05:14:13;1.10;;;1.10;;
595;SDS011;19946;49.306;11.350;2023-05-14T05:17:15;0.80;;;0.80;;
595;SDS011;19946;49.306;11.350;2023-05-14T05:20:16;0.80;;;0.80;;
595;SDS011;19946;49.306;11.350;2023-05-14T05:23:16;0.70;;;0.70;;
595;SDS011;19946;49.306;11.350;2023-05-14T05:26:17;0.90;;;0.90;;
595;SDS011;19946;49.306;11.350;2023-05-14T05:29:18;1.00;;;1.00;;
595;SDS011;19946;49.306;11.350;2023-05-14T05:32:19;0.90;;;0.90;;
595;SDS011;19946;49.306;11.350;2023-05-14T05:35:20;1.00;;;1.00;;
595;SDS011;19946;49.306;11.350;2023-05-14T05:38:21;0.90;;;0.90;;
595;SDS011;19946;49.306;11.350;2023-05-14T05:41:22;1.10;;;1.10;;
595;SDS011;19946;49.306;11.350;2023-05-14T05:44:22;1.10;;;1.10;;
595;SDS011;19946;49.306;11.350;2023-05-14T05:47:25;0.80;;;0.80;;
595;SDS011;19946;49.306;11.350;2023-05-14T05:50:27;1.00;;;1.00;;
595;SDS011;19946;49.306;11.350;2023-05-14T05:53:29;0.90;;;0.90;;
595;SDS011;19946;49.306;11.350;2023-05-14T05:56:30;1.03;;;1.03;;
595;SDS011;19946;49.306;11.350;2023-05-14T05:59:32;1.20;;;1.20;;
595;SDS011;19946;49.306;11.350;2023-05-14T06:02:32;1.20;;;1.20;;
595;SDS011;19946;49.306;11.350;2023-05-14T06:05:37;1.10;;;1.10;;
595;SDS011;19946;49.306;11.350;2023-05-14T06:08:38;1.20;;;1.20;;
595;SDS011;19946;49.306;11.350;2023-05-14T06:11:38;0.90;;;0.90;;
595;SDS011;19946;49.306;11.350;2023-05-14T06:14:39;1.00;;;1.00;;
595;SDS011;19946;49.306;11.350;2023-05-14T06:17:39;1.00;;;1.00;;
595;SDS011;19946;49.306;11.350;2023-05-14T06:20:41;0.80;;;0.80;;
595;SDS011;19946;49.306;11.350;2023-05-14T06:23:42;0.90;;;0.90;;
595;SDS011;19946;49.306;11.350;2023-05-14T06:26:43;0.80;;;0.80;;
595;SDS011;19946;49.306;11.350;2023-05-14T06:29:44;0.80;;;0.80;;
595;SDS011;19946;49.306;11.350;2023-05-14T06:32:44;0.80;;;0.80;;
595;SDS011;19946;49.306;11.350;2023-05-14T06:35:45;0.90;;;0.90;;
595;SDS011;19946;49.306;11.350;2023-05-14T06:38:50;1.00;;;1.00;;
595;SDS011;19946;49.306;11.350;2023-05-14T06:41:52;0.90;;;0.90;;
595;SDS011;19946;49.306;11.350;2023-05-14T06:44:55;0.90;;;0.90;;
595;SDS011;19946;49.306;11.350;2023-05-14T06:47:56;1.10;;;1.10;;
595;SDS011;19946;49.306;11.350;2023-05-14T06:50:57;1.20;;;1.20;;
595;SDS011;19946;49.306;11.350;2023-05-14T06:54:01;1.20;;;1.20;;
595;SDS011;19946;49.306;11.350;2023-05-14T06:57:02;1.33;;;1.33;;
595;SDS011;19946;49.306;11.350;2023-05-14T07:00:06;1.30;;;1.30;;
595;SDS011;19946;49.306;11.350;2023-05-14T07:03:09;1.40;;;1.40;;
595;SDS011;19946;49.306;11.350;2023-05-14T07:06:12;1.40;;;1.40;;
595;SDS011;19946;49.306;11.350;2023-05-14T07:09:13;1.40;;;1.40;;
595;SDS011;19946;49.306;11.350;2023-05-14T07:12:14;1.50;;;1.50;;
595;SDS011;19946;49.306;11.350;2023-05-14T07:15:16;1.40;;;1.40;;
595;SDS011;19946;49.306;11.350;2023-05-14T07:18:18;1.40;;;1.40;;
595;SDS011;19946;49.306;11.350;2023-05-14T07:21:19;1.47;;;1.47;;
595;SDS011;19946;49.306;11.350;2023-05-14T07:24:21;1.40;;;1.40;;
595;SDS011;19946;49.306;11.350;2023-05-14T07:27:23;1.50;;;1.50;;
595;SDS011;19946;49.306;11.350;2023-05-14T07:30:25;2.03;;;2.03;;
595;SDS011;19946;49.306;11.350;2023-05-14T07:33:26;1.40;;;1.40;;
595;SDS011;19946;49.306;11.350;2023-05-14T07:36:27;1.60;;;1.60;;
595;SDS011;19946;49.306;11.350;2023-05-14T07:39:29;1.30;;;1.30;;
595;SDS011;19946;49.306;11.350;2023-05-14T07:42:29;1.43;;;1.40;;
595;SDS011;19946;49.306;11.350;2023-05-14T07:45:30;1.40;;;1.40;;
595;SDS011;19946;49.306;11.350;2023-05-14T07:48:31;1.60;;;1.60;;
595;SDS011;19946;49.306;11.350;2023-05-14T07:51:32;1.50;;;1.50;;
595;SDS011;19946;49.306;11.350;2023-05-14T07:54:34;1.50;;;1.50;;
595;SDS011;19946;49.306;11.350;2023-05-14T07:57:35;1.50;;;1.50;;
595;SDS011;19946;49.306;11.350;2023-05-14T08:00:36;1.30;;;1.30;;
595;SDS011;19946;49.306;11.350;2023-05-14T08:03:39;1.00;;;1.00;;
595;SDS011;19946;49.306;11.350;2023-05-14T08:06:41;1.00;;;1.00;;
595;SDS011;19946;49.306;11.350;2023-05-14T08:09:42;1.17;;;1.17;;
595;SDS011;19946;49.306;11.350;2023-05-14T08:12:43;1.13;;;1.13;;
595;SDS011;19946;49.306;11.350;2023-05-14T08:15:45;1.30;;;1.30;;
595;SDS011;19946;49.306;11.350;2023-05-14T08:18:47;1.40;;;1.40;;
595;SDS011;19946;49.306;11.350;2023-05-14T08:21:49;1.73;;;1.73;;
595;SDS011;19946;49.306;11.350;2023-05-14T08:24:50;1.50;;;1.50;;
595;SDS011;19946;49.306;11.350;2023-05-14T08:27:52;1.83;;;1.83;;
595;SDS011;19946;49.306;11.350;2023-05-14T08:30:53;1.73;;;1.73;;
595;SDS011;19946;49.306;11.350;2023-05-14T08:33:54;1.90;;;1.90;;
595;SDS011;19946;49.306;11.350;2023-05-14T08:36:54;2.17;;;2.17;;
595;SDS011;19946;49.306;11.350;2023-05-14T08:39:55;1.90;;;1.90;;
595;SDS011;19946;49.306;11.350;2023-05-14T08:42:56;1.60;;;1.60;;
595;SDS011;19946;49.306;11.350;2023-05-14T08:45:57;1.47;;;1.47;;
595;SDS011;19946;49.306;11.350;2023-05-14T08:49:04;1.50;;;1.50;;
595;SDS011;19946;49.306;11.350;2023-05-14T08:52:25;1.40;;;1.40;;
595;SDS011;19946;49.306;11.350;2023-05-14T08:55:26;1.80;;;1.80;;
595;SDS011;19946;49.306;11.350;2023-05-14T08:58:28;1.80;;;1.80;;
595;SDS011;19946;49.306;11.350;2023-05-14T09:01:29;2.23;;;2.13;;
595;SDS011;19946;49.306;11.350;2023-05-14T09:04:36;1.90;;;1.90;;
595;SDS011;19946;49.306;11.350;2023-05-14T09:07:38;1.93;;;1.93;;
595;SDS011;19946;49.306;11.350;2023-05-14T09:10:43;2.17;;;2.00;;
595;SDS011;19946;49.306;11.350;2023-05-14T09:13:46;2.00;;;2.00;;
595;SDS011;19946;49.306;11.350;2023-05-14T09:16:50;1.90;;;1.90;;
595;SDS011;19946;49.306;11.350;2023-05-14T09:19:55;1.60;;;1.60;;
595;SDS011;19946;49.306;11.350;2023-05-14T09:23:00;1.53;;;1.53;;
595;SDS011;19946;49.306;11.350;2023-05-14T09:26:04;1.20;;;1.20;;
595;SDS011;19946;49.306;11.350;2023-05-14T09:29:07;1.20;;;1.20;;
595;SDS011;19946;49.306;11.350;2023-05-14T09:32:12;1.70;;;1.70;;
595;SDS011;19946;49.306;11.350;2023-05-14T09:35:19;2.40;;;2.30;;
595;SDS011;19946;49.306;11.350;2023-05-14T09:38:26;1.10;;;1.10;;
595;SDS011;19946;49.306;11.350;2023-05-14T09:41:29;2.43;;;2.23;;
595;SDS011;19946;49.306;11.350;2023-05-14T09:44:35;1.60;;;1.60;;
595;SDS011;19946;49.306;11.350;2023-05-14T09:47:37;1.50;;;1.50;;
595;SDS011;19946;49.306;11.350;2023-05-14T09:50:44;1.37;;;1.37;;
595;SDS011;19946;49.306;11.350;2023-05-14T09:53:45;1.30;;;1.30;;
595;SDS011;19946;49.306;11.350;2023-05-14T09:56:46;1.33;;;1.33;;
595;SDS011;19946;49.306;11.350;2023-05-14T09:59:46;1.30;;;1.30;;
595;SDS011;19946;49.306;11.350;2023-05-14T10:02:47;1.10;;;1.10;;
595;SDS011;19946;49.306;11.350;2023-05-14T10:05:50;1.10;;;1.10;;
595;SDS011;19946;49.306;11.350;2023-05-14T10:08:56;1.30;;;1.30;;
595;SDS011;19946;49.306;11.350;2023-05-14T10:12:00;1.30;;;1.30;;
595;SDS011;19946;49.306;11.350;2023-05-14T10:15:03;1.30;;;1.30;;
595;SDS011;19946;49.306;11.350;2023-05-14T10:18:15;1.30;;;1.30;;
595;SDS011;19946;49.306;11.350;2023-05-14T10:21:19;1.30;;;1.30;;
595;SDS011;19946;49.306;11.350;2023-05-14T10:24:26;0.90;;;0.90;;
595;SDS011;19946;49.306;11.350;2023-05-14T10:27:27;0.90;;;0.90;;
595;SDS011;19946;49.306;11.350;2023-05-14T10:30:32;0.90;;;0.90;;
595;SDS011;19946;49.306;11.350;2023-05-14T10:33:50;1.00;;;1.00;;
595;SDS011;19946;49.306;11.350;2023-05-14T10:36:51;0.90;;;0.90;;
595;SDS011;19946;49.306;11.350;2023-05-14T10:39:57;0.90;;;0.90;;
595;SDS011;19946;49.306;11.350;2023-05-14T10:43:02;0.80;;;0.80;;
595;SDS011;19946;49.306;11.350;2023-05-14T10:46:07;0.90;;;0.90;;
595;SDS011;19946;49.306;11.350;2023-05-14T10:49:10;0.80;;;0.80;;
595;SDS011;19946;49.306;11.350;2023-05-14T10:52:18;0.80;;;0.80;;
595;SDS011;19946;49.306;11.350;2023-05-14T10:55:19;1.00;;;1.00;;
595;SDS011;19946;49.306;11.350;2023-05-14T10:58:21;0.80;;;0.80;;
595;SDS011;19946;49.306;11.350;2023-05-14T11:01:23;0.70;;;0.70;;
595;SDS011;19946;49.306;11.350;2023-05-14T11:04:24;0.70;;;0.70;;
595;SDS011;19946;49.306;11.350;2023-05-14T11:07:33;0.70;;;0.70;;
595;SDS011;19946;49.306;11.350;2023-05-14T11:10:36;1.10;;;1.10;;
595;SDS011;19946;49.306;11.350;2023-05-14T11:13:38;0.80;;;0.80;;
595;SDS011;19946;49.306;11.350;2023-05-14T11:16:41;0.73;;;0.73;;
595;SDS011;19946;49.306;11.350;2023-05-14T11:19:42;0.70;;;0.70;;
595;SDS011;19946;49.306;11.350;2023-05-14T11:22:44;0.80;;;0.80;;
595;SDS011;19946;49.306;11.350;2023-05-14T11:25:46;0.80;;;0.80;;
595;SDS011;19946;49.306;11.350;2023-05-14T11:28:50;0.80;;;0.80;;
595;SDS011;19946;49.306;11.350;2023-05-14T11:31:51;0.70;;;0.70;;
595;SDS011;19946;49.306;11.350;2023-05-14T11:34:53;0.80;;;0.80;;
595;SDS011;19946;49.306;11.350;2023-05-14T11:37:55;0.70;;;0.70;;
595;SDS011;19946;49.306;11.350;2023-05-14T11:40:56;0.70;;;0.70;;
595;SDS011;19946;49.306;11.350;2023-05-14T11:43:59;0.67;;;0.67;;
595;SDS011;19946;49.306;11.350;2023-05-14T11:47:03;0.60;;;0.60;;
595;SDS011;19946;49.306;11.350;2023-05-14T11:50:11;0.70;;;0.70;;
595;SDS011;19946;49.306;11.350;2023-05-14T11:53:43;0.80;;;0.80;;
595;SDS011;19946;49.306;11.350;2023-05-14T11:56:54;0.93;;;0.93;;
595;SDS011;19946;49.306;11.350;2023-05-14T12:00:25;0.90;;;0.90;;
595;SDS011;19946;49.306;11.350;2023-05-14T12:03:37;0.70;;;0.70;;
595;SDS011;19946;49.306;11.350;2023-05-14T12:07:07;1.07;;;0.87;;
595;SDS011;19946;49.306;11.350;2023-05-14T12:10:25;0.70;;;0.70;;
595;SDS011;19946;49.306;11.350;2023-05-14T12:13:28;0.50;;;0.50;;
595;SDS011;19946;49.306;11.350;2023-05-14T12:16:40;0.60;;;0.60;;
595;SDS011;19946;49.306;11.350;2023-05-14T12:19:55;0.50;;;0.50;;
595;SDS011;19946;49.306;11.350;2023-05-14T12:22:59;0.60;;;0.60;;
595;SDS011;19946;49.306;11.350;2023-05-14T12:26:04;0.60;;;0.60;;
595;SDS011;19946;49.306;11.350;2023-05-14T12:29:07;0.60;;;0.60;;
595;SDS011;19946;49.306;11.350;2023-05-14T12:32:11;0.70;;;0.70;;
595;SDS011;19946;49.306;11.350;2023-05-14T12:35:15;0.70;;;0.70;;
595;SDS011;19946;49.306;11.350;2023-05-14T12:38:16;0.60;;;0.60;;
595;SDS011;19946;49.306;11.350;2023-05-14T12:41:17;0.60;;;0.60;;
595;SDS011;19946;49.306;11.350;2023-05-14T12:44:19;0.67;;;0.67;;
595;SDS011;19946;49.306;11.350;2023-05-14T12:47:21;0.67;;;0.67;;
595;SDS011;19946;49.306;11.350;2023-05-14T12:50:25;0.60;;;0.60;;
595;SDS011;19946;49.306;11.350;2023-05-14T12:53:30;0.60;;;0.60;;
595;SDS011;19946;49.306;11.350;2023-05-14T12:56:31;0.60;;;0.60;;
595;SDS011;19946;49.306;11.350;2023-05-14T12:59:32;0.60;;;0.60;;
595;SDS011;19946;49.306;11.350;2023-05-14T13:02:37;0.80;;;0.80;;
595;SDS011;19946;49.306;11.350;2023-05-14T13:05:38;0.60;;;0.60;;
595;SDS011;19946;49.306;11.350;2023-05-14T13:08:40;0.60;;;0.60;;
595;SDS011;19946;49.306;11.350;2023-05-14T13:11:43;0.70;;;0.70;;
595;SDS011;19946;49.306;11.350;2023-05-14T13:14:48;0.70;;;0.70;;
595;SDS011;19946;49.306;11.350;2023-05-14T13:17:50;2.60;;;1.20;;
595;SDS011;19946;49.306;11.350;2023-05-14T13:20:50;0.60;;;0.60;;
595;SDS011;19946;49.306;11.350;2023-05-14T13:23:54;0.80;;;0.80;;
595;SDS011;19946;49.306;11.350;2023-05-14T13:26:55;0.60;;;0.60;;
595;SDS011;19946;49.306;11.350;2023-05-14T13:29:56;0.50;;;0.50;;
595;SDS011;19946;49.306;11.350;2023-05-14T13:32:58;0.60;;;0.60;;
595;SDS011;19946;49.306;11.350;2023-05-14T13:36:00;0.60;;;0.60;;
595;SDS011;19946;49.306;11.350;2023-05-14T13:39:03;0.73;;;0.73;;
595;SDS011;19946;49.306;11.350;2023-05-14T13:42:05;0.50;;;0.50;;
595;SDS011;19946;49.306;11.350;2023-05-14T13:45:08;0.60;;;0.60;;
595;SDS011;19946;49.306;11.350;2023-05-14T13:48:12;0.60;;;0.60;;
595;SDS011;19946;49.306;11.350;2023-05-14T13:51:13;0.60;;;0.60;;
595;SDS011;19946;49.306;11.350;2023-05-14T13:54:14;0.40;;;0.40;;
595;SDS011;19946;49.306;11.350;2023-05-14T13:57:15;0.40;;;0.40;;
595;SDS011;19946;49.306;11.350;2023-05-14T14:00:17;0.50;;;0.50;;
595;SDS011;19946;49.306;11.350;2023-05-14T14:03:19;0.50;;;0.50;;
595;SDS011;19946;49.306;11.350;2023-05-14T14:06:29;0.40;;;0.40;;
595;SDS011;19946;49.306;11.350;2023-05-14T14:09:32;0.40;;;0.40;;
595;SDS011;19946;49.306;11.350;2023-05-14T14:12:35;0.50;;;0.50;;
595;SDS011;19946;49.306;11.350;2023-05-14T14:15:42;0.40;;;0.40;;
595;SDS011;19946;49.306;11.350;2023-05-14T14:18:44;0.40;;;0.40;;
595;SDS011;19946;49.306;11.350;2023-05-14T14:21:47;0.50;;;0.50;;
595;SDS011;19946;49.306;11.350;2023-05-14T14:24:50;0.97;;;0.97;;
595;SDS011;19946;49.306;11.350;2023-05-14T14:27:54;1.03;;;0.77;;
595;SDS011;19946;49.306;11.350;2023-05-14T14:30:55;0.50;;;0.50;;
595;SDS011;19946;49.306;11.350;2023-05-14T14:33:56;0.60;;;0.60;;
595;SDS011;19946;49.306;11.350;2023-05-14T14:36:59;0.50;;;0.50;;
595;SDS011;19946;49.306;11.350;2023-05-14T14:39:59;0.70;;;0.70;;
595;SDS011;19946;49.306;11.350;2023-05-14T14:43:00;0.60;;;0.60;;
595;SDS011;19946;49.306;11.350;2023-05-14T14:46:05;0.60;;;0.60;;
595;SDS011;19946;49.306;11.350;2023-05-14T14:49:10;0.80;;;0.80;;
595;SDS011;19946;49.306;11.350;2023-05-14T14:52:11;0.70;;;0.70;;
595;SDS011;19946;49.306;11.350;2023-05-14T14:55:13;0.73;;;0.73;;
595;SDS011;19946;49.306;11.350;2023-05-14T14:58:17;0.70;;;0.70;;
595;SDS011;19946;49.306;11.350;2023-05-14T15:01:22;0.50;;;0.50;;
595;SDS011;19946;49.306;11.350;2023-05-14T15:04:22;0.50;;;0.50;;
595;SDS011;19946;49.306;11.350;2023-05-14T15:07:24;0.47;;;0.47;;
595;SDS011;19946;49.306;11.350;2023-05-14T15:10:26;1.10;;;0.57;;
595;SDS011;19946;49.306;11.350;2023-05-14T15:13:31;0.37;;;0.37;;
595;SDS011;19946;49.306;11.350;2023-05-14T15:16:32;0.60;;;0.60;;
595;SDS011;19946;49.306;11.350;2023-05-14T15:19:35;0.30;;;0.30;;
595;SDS011;19946;49.306;11.350;2023-05-14T15:22:35;0.40;;;0.40;;
595;SDS011;19946;49.306;11.350;2023-05-14T15:25:36;0.30;;;0.30;;
595;SDS011;19946;49.306;11.350;2023-05-14T15:28:38;0.40;;;0.40;;
595;SDS011;19946;49.306;11.350;2023-05-14T15:31:39;0.40;;;0.40;;
595;SDS011;19946;49.306;11.350;2023-05-14T15:34:40;0.33;;;0.33;;
595;SDS011;19946;49.306;11.350;2023-05-14T15:37:42;0.40;;;0.40;;
595;SDS011;19946;49.306;11.350;2023-05-14T15:40:45;0.40;;;0.40;;
595;SDS011;19946;49.306;11.350;2023-05-14T15:43:48;0.40;;;0.40;;
595;SDS011;19946;49.306;11.350;2023-05-14T15:46:51;0.40;;;0.40;;
595;SDS011;19946;49.306;11.350;2023-05-14T15:49:53;0.30;;;0.30;;
595;SDS011;19946;49.306;11.350;2023-05-14T15:52:57;0.30;;;0.30;;
595;SDS011;19946;49.306;11.350;2023-05-14T15:56:01;0.30;;;0.30;;
595;SDS011;19946;49.306;11.350;2023-05-14T15:59:04;0.30;;;0.30;;
595;SDS011;19946;49.306;11.350;2023-05-14T16:02:05;0.30;;;0.30;;
595;SDS011;19946;49.306;11.350;2023-05-14T16:05:06;0.37;;;0.37;;
595;SDS011;19946;49.306;11.350;2023-05-14T16:08:08;0.30;;;0.30;;
595;SDS011;19946;49.306;11.350;2023-05-14T16:11:09;0.40;;;0.40;;
595;SDS011;19946;49.306;11.350;2023-05-14T16:14:10;0.30;;;0.30;;
595;SDS011;19946;49.306;11.350;2023-05-14T16:17:11;0.40;;;0.40;;
595;SDS011;19946;49.306;11.350;2023-05-14T16:20:12;3.50;;;1.57;;
595;SDS011;19946;49.306;11.350;2023-05-14T16:23:15;0.40;;;0.40;;
595;SDS011;19946;49.306;11.350;2023-05-14T16:26:16;0.40;;;0.40;;
595;SDS011;19946;49.306;11.350;2023-05-14T16:29:17;0.87;;;0.70;;
595;SDS011;19946;49.306;11.350;2023-05-14T16:32:17;0.40;;;0.40;;
595;SDS011;19946;49.306;11.350;2023-05-14T16:35:19;0.40;;;0.40;;
595;SDS011;19946;49.306;11.350;2023-05-14T16:38:19;0.40;;;0.40;;
595;SDS011;19946;49.306;11.350;2023-05-14T16:41:22;0.40;;;0.40;;
595;SDS011;19946;49.306;11.350;2023-05-14T16:44:23;0.40;;;0.40;;
595;SDS011;19946;49.306;11.350;2023-05-14T16:47:26;0.40;;;0.40;;
595;SDS011;19946;49.306;11.350;2023-05-14T16:50:31;0.40;;;0.40;;
595;SDS011;19946;49.306;11.350;2023-05-14T16:53:32;0.40;;;0.40;;
595;SDS011;19946;49.306;11.350;2023-05-14T16:56:33;0.40;;;0.40;;
595;SDS011;19946;49.306;11.350;2023-05-14T16:59:38;0.40;;;0.40;;
595;SDS011;19946;49.306;11.350;2023-05-14T17:02:41;0.40;;;0.40;;
595;SDS011;19946;49.306;11.350;2023-05-14T17:05:42;0.40;;;0.40;;
595;SDS011;19946;49.306;11.350;2023-05-14T17:08:43;0.30;;;0.30;;
595;SDS011;19946;49.306;11.350;2023-05-14T17:11:47;0.33;;;0.33;;
595;SDS011;19946;49.306;11.350;2023-05-14T17:14:48;0.30;;;0.30;;
595;SDS011;19946;49.306;11.350;2023-05-14T17:17:50;0.30;;;0.30;;
595;SDS011;19946;49.306;11.350;2023-05-14T17:20:51;0.30;;;0.30;;
595;SDS011;19946;49.306;11.350;2023-05-14T17:23:52;0.40;;;0.40;;
595;SDS011;19946;49.306;11.350;2023-05-14T17:26:56;0.30;;;0.30;;
595;SDS011;19946;49.306;11.350;2023-05-14T17:30:05;0.43;;;0.43;;
595;SDS011;19946;49.306;11.350;2023-05-14T17:33:07;0.40;;;0.40;;
595;SDS011;19946;49.306;11.350;2023-05-14T17:36:25;0.40;;;0.40;;
595;SDS011;19946;49.306;11.350;2023-05-14T17:39:35;0.30;;;0.30;;
595;SDS011;19946;49.306;11.350;2023-05-14T17:42:39;0.93;;;0.90;;
595;SDS011;19946;49.306;11.350;2023-05-14T17:45:43;0.30;;;0.30;;
595;SDS011;19946;49.306;11.350;2023-05-14T17:48:45;0.37;;;0.37;;
595;SDS011;19946;49.306;11.350;2023-05-14T17:51:45;0.50;;;0.50;;
595;SDS011;19946;49.306;11.350;2023-05-14T17:54:46;0.37;;;0.37;;
595;SDS011;19946;49.306;11.350;2023-05-14T17:57:46;0.40;;;0.40;;
595;SDS011;19946;49.306;11.350;2023-05-14T18:00:47;0.50;;;0.50;;
595;SDS011;19946;49.306;11.350;2023-05-14T18:03:48;0.40;;;0.40;;
595;SDS011;19946;49.306;11.350;2023-05-14T18:06:48;0.50;;;0.50;;
595;SDS011;19946;49.306;11.350;2023-05-14T18:09:49;0.40;;;0.40;;
595;SDS011;19946;49.306;11.350;2023-05-14T18:12:49;0.40;;;0.40;;
595;SDS011;19946;49.306;11.350;2023-05-14T18:15:49;0.40;;;0.40;;
595;SDS011;19946;49.306;11.350;2023-05-14T18:18:53;0.40;;;0.40;;
595;SDS011;19946;49.306;11.350;2023-05-14T18:21:55;0.40;;;0.40;;
595;SDS011;19946;49.306;11.350;2023-05-14T18:24:56;0.40;;;0.40;;
595;SDS011;19946;49.306;11.350;2023-05-14T18:28:01;0.30;;;0.30;;
595;SDS011;19946;49.306;11.350;2023-05-14T18:31:03;0.30;;;0.30;;
595;SDS011;19946;49.306;11.350;2023-05-14T18:34:06;0.40;;;0.40;;
595;SDS011;19946;49.306;11.350;2023-05-14T18:37:09;0.30;;;0.30;;
595;SDS011;19946;49.306;11.350;2023-05-14T18:40:10;0.70;;;0.70;;
595;SDS011;19946;49.306;11.350;2023-05-14T18:43:14;0.57;;;0.50;;
595;SDS011;19946;49.306;11.350;2023-05-14T18:46:16;0.30;;;0.30;;
595;SDS011;19946;49.306;11.350;2023-05-14T18:49:19;0.40;;;0.40;;
595;SDS011;19946;49.306;11.350;2023-05-14T18:52:21;0.37;;;0.37;;
595;SDS011;19946;49.306;11.350;2023-05-14T18:55:22;0.30;;;0.30;;
595;SDS011;19946;49.306;11.350;2023-05-14T18:58:25;0.33;;;0.33;;
595;SDS011;19946;49.306;11.350;2023-05-14T19:01:46;0.40;;;0.40;;
595;SDS011;19946;49.306;11.350;2023-05-14T19:04:50;0.50;;;0.50;;
595;SDS011;19946;49.306;11.350;2023-05-14T19:07:51;0.20;;;0.20;;
595;SDS011;19946;49.306;11.350;2023-05-14T19:10:52;0.30;;;0.30;;